sensor_id;sensor_type;location;lat;lon;timestamp;P1;durP1;ratioP1;P2;durP2;ratioP2
7563;SDS011;3823;53.586;10.040;2024-03-02T00:02:01;19.00;;;12.70;;
7563;SDS011;3823;53.586;10.040;2024-03-02T00:04:27;22.98;;;14.85;;
7563;SDS011;3823;53.586;10.040;2024-03-02T00:06:52;22.23;;;13.45;;
7563;SDS011;3823;53.586;10.040;2024-03-02T00:09:20;21.63;;;14.32;;
7563;SDS011;3823;53.586;10.040;2024-03-02T00:11:45;24.23;;;14.60;;
7563;SDS011;3823;53.586;10.040;2024-03-02T00:14:11;25.38;;;15.20;;
7563;SDS011;3823;53.586;10.040;2024-03-02T00:16:37;20.88;;;14.23;;
7563;SDS011;3823;53.586;10.040;2024-03-02T00:19:03;24.38;;;14.25;;
7563;SDS011;3823;53.586;10.040;2024-03-02T00:21:31;23.70;;;14.98;;
7563;SDS011;3823;53.586;10.040;2024-03-02T00:23:57;24.65;;;15.52;;
7563;SDS011;3823;53.586;10.040;2024-03-02T00:26:23;26.17;;;14.80;;
7563;SDS011;3823;53.586;10.040;2024-03-02T00:28:48;25.92;;;14.35;;
7563;SDS011;3823;53.586;10.040;2024-03-02T00:31:15;29.02;;;16.08;;
7563;SDS011;3823;53.586;10.040;2024-03-02T00:33:44;29.65;;;17.27;;
7563;SDS011;3823;53.586;10.040;2024-03-02T00:36:12;29.40;;;17.98;;
7563;SDS011;3823;53.586;10.040;2024-03-02T00:38:44;32.65;;;17.48;;
7563;SDS011;3823;53.586;10.040;2024-03-02T00:41:24;32.38;;;18.13;;
7563;SDS011;3823;53.586;10.040;2024-03-02T00:44:00;34.30;;;19.15;;
7563;SDS011;3823;53.586;10.040;2024-03-02T00:46:30;34.08;;;19.27;;
7563;SDS011;3823;53.586;10.040;2024-03-02T00:49:03;33.42;;;19.77;;
7563;SDS011;3823;53.586;10.040;2024-03-02T00:51:45;35.72;;;19.20;;
7563;SDS011;3823;53.586;10.040;2024-03-02T00:54:19;37.47;;;20.85;;
7563;SDS011;3823;53.586;10.040;2024-03-02T00:56:45;32.83;;;19.17;;
7563;SDS011;3823;53.586;10.040;2024-03-02T00:59:12;35.90;;;19.63;;
7563;SDS011;3823;53.586;10.040;2024-03-02T01:01:38;38.08;;;20.13;;
7563;SDS011;3823;53.586;10.040;2024-03-02T01:04:04;36.70;;;20.00;;
7563;SDS011;3823;53.586;10.040;2024-03-02T01:06:30;35.22;;;20.58;;
7563;SDS011;3823;53.586;10.040;2024-03-02T01:08:56;36.38;;;20.52;;
7563;SDS011;3823;53.586;10.040;2024-03-02T01:11:21;44.08;;;23.08;;
7563;SDS011;3823;53.586;10.040;2024-03-02T01:13:47;44.88;;;23.23;;
7563;SDS011;3823;53.586;10.040;2024-03-02T01:16:13;39.95;;;20.77;;
7563;SDS011;3823;53.586;10.040;2024-03-02T01:18:39;40.75;;;22.77;;
7563;SDS011;3823;53.586;10.040;2024-03-02T01:21:04;44.08;;;22.88;;
7563;SDS011;3823;53.586;10.040;2024-03-02T01:23:30;40.97;;;20.38;;
7563;SDS011;3823;53.586;10.040;2024-03-02T01:25:55;35.90;;;20.70;;
7563;SDS011;3823;53.586;10.040;2024-03-02T01:28:21;36.33;;;21.17;;
7563;SDS011;3823;53.586;10.040;2024-03-02T01:30:47;43.50;;;22.75;;
7563;SDS011;3823;53.586;10.040;2024-03-02T01:33:13;40.08;;;22.73;;
7563;SDS011;3823;53.586;10.040;2024-03-02T01:35:39;39.63;;;22.23;;
7563;SDS011;3823;53.586;10.040;2024-03-02T01:38:04;36.67;;;21.42;;
7563;SDS011;3823;53.586;10.040;2024-03-02T01:40:36;41.58;;;22.20;;
7563;SDS011;3823;53.586;10.040;2024-03-02T01:43:05;45.20;;;22.40;;
7563;SDS011;3823;53.586;10.040;2024-03-02T01:45:32;37.38;;;21.55;;
7563;SDS011;3823;53.586;10.040;2024-03-02T01:47:58;41.08;;;23.13;;
7563;SDS011;3823;53.586;10.040;2024-03-02T01:50:25;40.47;;;23.30;;
7563;SDS011;3823;53.586;10.040;2024-03-02T01:52:56;37.50;;;22.50;;
7563;SDS011;3823;53.586;10.040;2024-03-02T01:55:21;36.45;;;21.15;;
7563;SDS011;3823;53.586;10.040;2024-03-02T01:57:48;38.58;;;21.83;;
7563;SDS011;3823;53.586;10.040;2024-03-02T02:00:15;42.83;;;21.67;;
7563;SDS011;3823;53.586;10.040;2024-03-02T02:02:41;41.22;;;22.58;;
7563;SDS011;3823;53.586;10.040;2024-03-02T02:05:07;43.15;;;23.15;;
7563;SDS011;3823;53.586;10.040;2024-03-02T02:07:33;44.58;;;22.70;;
7563;SDS011;3823;53.586;10.040;2024-03-02T02:09:59;39.58;;;22.23;;
7563;SDS011;3823;53.586;10.040;2024-03-02T02:12:26;40.50;;;22.60;;
7563;SDS011;3823;53.586;10.040;2024-03-02T02:14:51;44.92;;;22.23;;
7563;SDS011;3823;53.586;10.040;2024-03-02T02:17:17;37.45;;;22.95;;
7563;SDS011;3823;53.586;10.040;2024-03-02T02:19:43;44.40;;;22.60;;
7563;SDS011;3823;53.586;10.040;2024-03-02T02:22:09;38.30;;;22.67;;
7563;SDS011;3823;53.586;10.040;2024-03-02T02:24:35;37.67;;;23.23;;
7563;SDS011;3823;53.586;10.040;2024-03-02T02:27:01;44.22;;;24.63;;
7563;SDS011;3823;53.586;10.040;2024-03-02T02:29:26;49.78;;;25.27;;
7563;SDS011;3823;53.586;10.040;2024-03-02T02:31:52;41.65;;;24.58;;
7563;SDS011;3823;53.586;10.040;2024-03-02T02:34:18;43.17;;;23.67;;
7563;SDS011;3823;53.586;10.040;2024-03-02T02:36:43;48.20;;;24.02;;
7563;SDS011;3823;53.586;10.040;2024-03-02T02:39:10;45.28;;;24.35;;
7563;SDS011;3823;53.586;10.040;2024-03-02T02:41:39;46.25;;;25.10;;
7563;SDS011;3823;53.586;10.040;2024-03-02T02:44:04;45.00;;;23.00;;
7563;SDS011;3823;53.586;10.040;2024-03-02T02:46:30;42.63;;;22.48;;
7563;SDS011;3823;53.586;10.040;2024-03-02T02:48:56;42.97;;;23.98;;
7563;SDS011;3823;53.586;10.040;2024-03-02T02:51:21;49.90;;;25.88;;
7563;SDS011;3823;53.586;10.040;2024-03-02T02:53:47;45.78;;;24.45;;
7563;SDS011;3823;53.586;10.040;2024-03-02T02:56:12;35.80;;;20.67;;
7563;SDS011;3823;53.586;10.040;2024-03-02T02:58:39;46.45;;;23.35;;
7563;SDS011;3823;53.586;10.040;2024-03-02T03:01:05;40.72;;;23.50;;
7563;SDS011;3823;53.586;10.040;2024-03-02T03:03:32;39.45;;;23.02;;
7563;SDS011;3823;53.586;10.040;2024-03-02T03:05:58;42.25;;;23.20;;
7563;SDS011;3823;53.586;10.040;2024-03-02T03:08:23;42.95;;;23.80;;
7563;SDS011;3823;53.586;10.040;2024-03-02T03:10:49;40.97;;;23.38;;
7563;SDS011;3823;53.586;10.040;2024-03-02T03:13:15;44.08;;;24.55;;
7563;SDS011;3823;53.586;10.040;2024-03-02T03:15:40;38.60;;;22.70;;
7563;SDS011;3823;53.586;10.040;2024-03-02T03:18:06;38.67;;;22.05;;
7563;SDS011;3823;53.586;10.040;2024-03-02T03:20:35;37.22;;;22.20;;
7563;SDS011;3823;53.586;10.040;2024-03-02T03:23:01;49.60;;;24.20;;
7563;SDS011;3823;53.586;10.040;2024-03-02T03:25:27;32.33;;;20.50;;
7563;SDS011;3823;53.586;10.040;2024-03-02T03:27:52;44.17;;;23.70;;
7563;SDS011;3823;53.586;10.040;2024-03-02T03:30:18;38.10;;;22.48;;
7563;SDS011;3823;53.586;10.040;2024-03-02T03:32:44;41.70;;;24.63;;
7563;SDS011;3823;53.586;10.040;2024-03-02T03:35:09;38.55;;;22.63;;
7563;SDS011;3823;53.586;10.040;2024-03-02T03:37:35;38.30;;;21.65;;
7563;SDS011;3823;53.586;10.040;2024-03-02T03:40:03;38.55;;;22.25;;
7563;SDS011;3823;53.586;10.040;2024-03-02T03:42:35;39.70;;;21.95;;
7563;SDS011;3823;53.586;10.040;2024-03-02T03:45:04;39.10;;;21.42;;
7563;SDS011;3823;53.586;10.040;2024-03-02T03:47:33;40.90;;;23.42;;
7563;SDS011;3823;53.586;10.040;2024-03-02T03:49:59;36.63;;;21.30;;
7563;SDS011;3823;53.586;10.040;2024-03-02T03:52:24;40.17;;;21.45;;
7563;SDS011;3823;53.586;10.040;2024-03-02T03:54:50;40.83;;;20.60;;
7563;SDS011;3823;53.586;10.040;2024-03-02T03:57:16;38.58;;;20.85;;
7563;SDS011;3823;53.586;10.040;2024-03-02T03:59:42;38.03;;;21.65;;
7563;SDS011;3823;53.586;10.040;2024-03-02T04:02:08;36.55;;;21.75;;
7563;SDS011;3823;53.586;10.040;2024-03-02T04:04:34;39.30;;;22.52;;
7563;SDS011;3823;53.586;10.040;2024-03-02T04:07:00;34.83;;;21.33;;
7563;SDS011;3823;53.586;10.040;2024-03-02T04:09:26;34.92;;;21.67;;
7563;SDS011;3823;53.586;10.040;2024-03-02T04:11:52;35.90;;;21.23;;
7563;SDS011;3823;53.586;10.040;2024-03-02T04:14:17;35.22;;;20.27;;
7563;SDS011;3823;53.586;10.040;2024-03-02T04:16:43;36.80;;;20.40;;
7563;SDS011;3823;53.586;10.040;2024-03-02T04:19:08;31.98;;;21.60;;
7563;SDS011;3823;53.586;10.040;2024-03-02T04:21:34;41.92;;;22.85;;
7563;SDS011;3823;53.586;10.040;2024-03-02T04:24:00;35.42;;;21.13;;
7563;SDS011;3823;53.586;10.040;2024-03-02T04:26:25;33.15;;;19.85;;
7563;SDS011;3823;53.586;10.040;2024-03-02T04:28:52;38.35;;;20.15;;
7563;SDS011;3823;53.586;10.040;2024-03-02T04:31:17;36.53;;;20.70;;
7563;SDS011;3823;53.586;10.040;2024-03-02T04:33:43;35.40;;;19.52;;
7563;SDS011;3823;53.586;10.040;2024-03-02T04:36:09;38.40;;;19.90;;
7563;SDS011;3823;53.586;10.040;2024-03-02T04:38:35;37.45;;;21.33;;
7563;SDS011;3823;53.586;10.040;2024-03-02T04:41:01;36.58;;;20.27;;
7563;SDS011;3823;53.586;10.040;2024-03-02T04:43:26;43.20;;;21.10;;
7563;SDS011;3823;53.586;10.040;2024-03-02T04:45:52;31.88;;;20.08;;
7563;SDS011;3823;53.586;10.040;2024-03-02T04:48:17;34.42;;;21.48;;
7563;SDS011;3823;53.586;10.040;2024-03-02T04:50:44;32.58;;;18.80;;
7563;SDS011;3823;53.586;10.040;2024-03-02T04:53:09;36.72;;;21.27;;
7563;SDS011;3823;53.586;10.040;2024-03-02T04:55:35;38.78;;;20.45;;
7563;SDS011;3823;53.586;10.040;2024-03-02T04:58:06;34.85;;;20.23;;
7563;SDS011;3823;53.586;10.040;2024-03-02T05:00:32;42.13;;;22.63;;
7563;SDS011;3823;53.586;10.040;2024-03-02T05:02:58;34.08;;;18.75;;
7563;SDS011;3823;53.586;10.040;2024-03-02T05:05:24;34.88;;;20.90;;
7563;SDS011;3823;53.586;10.040;2024-03-02T05:07:50;38.45;;;21.65;;
7563;SDS011;3823;53.586;10.040;2024-03-02T05:10:15;34.05;;;21.27;;
7563;SDS011;3823;53.586;10.040;2024-03-02T05:12:41;33.55;;;19.55;;
7563;SDS011;3823;53.586;10.040;2024-03-02T05:15:07;34.85;;;20.73;;
7563;SDS011;3823;53.586;10.040;2024-03-02T05:17:35;35.90;;;19.45;;
7563;SDS011;3823;53.586;10.040;2024-03-02T05:20:01;35.35;;;21.67;;
7563;SDS011;3823;53.586;10.040;2024-03-02T05:22:26;34.05;;;19.42;;
7563;SDS011;3823;53.586;10.040;2024-03-02T05:24:52;37.50;;;21.10;;
7563;SDS011;3823;53.586;10.040;2024-03-02T05:27:18;38.72;;;20.67;;
7563;SDS011;3823;53.586;10.040;2024-03-02T05:29:43;36.47;;;20.25;;
7563;SDS011;3823;53.586;10.040;2024-03-02T05:32:09;40.58;;;21.17;;
7563;SDS011;3823;53.586;10.040;2024-03-02T05:34:34;38.90;;;20.10;;
7563;SDS011;3823;53.586;10.040;2024-03-02T05:37:00;40.00;;;21.00;;
7563;SDS011;3823;53.586;10.040;2024-03-02T05:39:26;37.83;;;19.00;;
7563;SDS011;3823;53.586;10.040;2024-03-02T05:41:52;36.00;;;20.88;;
7563;SDS011;3823;53.586;10.040;2024-03-02T05:44:17;38.40;;;20.10;;
7563;SDS011;3823;53.586;10.040;2024-03-02T05:46:43;34.53;;;20.80;;
7563;SDS011;3823;53.586;10.040;2024-03-02T05:49:09;35.00;;;20.42;;
7563;SDS011;3823;53.586;10.040;2024-03-02T05:51:35;35.85;;;20.55;;
7563;SDS011;3823;53.586;10.040;2024-03-02T05:54:00;33.83;;;20.45;;
7563;SDS011;3823;53.586;10.040;2024-03-02T05:56:26;33.25;;;20.90;;
7563;SDS011;3823;53.586;10.040;2024-03-02T05:58:52;33.45;;;20.23;;
7563;SDS011;3823;53.586;10.040;2024-03-02T06:01:32;34.45;;;19.67;;
7563;SDS011;3823;53.586;10.040;2024-03-02T06:03:58;34.53;;;20.00;;
7563;SDS011;3823;53.586;10.040;2024-03-02T06:06:24;29.20;;;18.30;;
7563;SDS011;3823;53.586;10.040;2024-03-02T06:08:50;32.90;;;19.35;;
7563;SDS011;3823;53.586;10.040;2024-03-02T06:11:16;33.72;;;18.58;;
7563;SDS011;3823;53.586;10.040;2024-03-02T06:13:41;33.50;;;18.25;;
7563;SDS011;3823;53.586;10.040;2024-03-02T06:16:07;36.50;;;20.25;;
7563;SDS011;3823;53.586;10.040;2024-03-02T06:18:33;30.95;;;20.00;;
7563;SDS011;3823;53.586;10.040;2024-03-02T06:20:59;31.73;;;19.30;;
7563;SDS011;3823;53.586;10.040;2024-03-02T06:23:26;28.33;;;17.50;;
7563;SDS011;3823;53.586;10.040;2024-03-02T06:25:51;31.20;;;19.27;;
7563;SDS011;3823;53.586;10.040;2024-03-02T06:28:17;30.80;;;20.00;;
7563;SDS011;3823;53.586;10.040;2024-03-02T06:30:43;30.70;;;19.33;;
7563;SDS011;3823;53.586;10.040;2024-03-02T06:33:09;28.10;;;18.88;;
7563;SDS011;3823;53.586;10.040;2024-03-02T06:35:34;32.33;;;18.85;;
7563;SDS011;3823;53.586;10.040;2024-03-02T06:38:00;33.63;;;19.63;;
7563;SDS011;3823;53.586;10.040;2024-03-02T06:40:26;36.88;;;21.10;;
7563;SDS011;3823;53.586;10.040;2024-03-02T06:42:52;33.15;;;18.70;;
7563;SDS011;3823;53.586;10.040;2024-03-02T06:45:18;40.10;;;19.50;;
7563;SDS011;3823;53.586;10.040;2024-03-02T06:47:43;39.72;;;19.20;;
7563;SDS011;3823;53.586;10.040;2024-03-02T06:50:09;28.70;;;18.17;;
7563;SDS011;3823;53.586;10.040;2024-03-02T06:52:35;30.92;;;18.40;;
7563;SDS011;3823;53.586;10.040;2024-03-02T06:55:01;31.52;;;17.80;;
7563;SDS011;3823;53.586;10.040;2024-03-02T06:57:27;34.58;;;20.35;;
7563;SDS011;3823;53.586;10.040;2024-03-02T06:59:52;33.42;;;19.58;;
7563;SDS011;3823;53.586;10.040;2024-03-02T07:02:20;32.25;;;19.38;;
7563;SDS011;3823;53.586;10.040;2024-03-02T07:04:46;27.40;;;15.68;;
7563;SDS011;3823;53.586;10.040;2024-03-02T07:07:12;38.08;;;20.38;;
7563;SDS011;3823;53.586;10.040;2024-03-02T07:09:38;28.65;;;17.98;;
7563;SDS011;3823;53.586;10.040;2024-03-02T07:12:04;33.45;;;18.73;;
7563;SDS011;3823;53.586;10.040;2024-03-02T07:14:30;36.35;;;19.23;;
7563;SDS011;3823;53.586;10.040;2024-03-02T07:17:14;33.35;;;19.13;;
7563;SDS011;3823;53.586;10.040;2024-03-02T07:19:40;29.92;;;17.63;;
7563;SDS011;3823;53.586;10.040;2024-03-02T07:22:06;31.02;;;17.67;;
7563;SDS011;3823;53.586;10.040;2024-03-02T07:24:38;29.33;;;18.40;;
7563;SDS011;3823;53.586;10.040;2024-03-02T07:27:07;25.27;;;16.67;;
7563;SDS011;3823;53.586;10.040;2024-03-02T07:29:37;30.80;;;16.73;;
7563;SDS011;3823;53.586;10.040;2024-03-02T07:32:04;30.80;;;18.88;;
7563;SDS011;3823;53.586;10.040;2024-03-02T07:34:30;26.98;;;16.95;;
7563;SDS011;3823;53.586;10.040;2024-03-02T07:36:56;32.95;;;20.42;;
7563;SDS011;3823;53.586;10.040;2024-03-02T07:39:22;34.90;;;18.90;;
7563;SDS011;3823;53.586;10.040;2024-03-02T07:41:47;28.80;;;18.02;;
7563;SDS011;3823;53.586;10.040;2024-03-02T07:44:13;32.28;;;19.33;;
7563;SDS011;3823;53.586;10.040;2024-03-02T07:46:42;33.47;;;17.42;;
7563;SDS011;3823;53.586;10.040;2024-03-02T07:49:08;27.77;;;17.58;;
7563;SDS011;3823;53.586;10.040;2024-03-02T07:51:34;29.40;;;19.35;;
7563;SDS011;3823;53.586;10.040;2024-03-02T07:54:00;32.00;;;19.23;;
7563;SDS011;3823;53.586;10.040;2024-03-02T07:56:25;27.55;;;16.08;;
7563;SDS011;3823;53.586;10.040;2024-03-02T07:58:51;32.03;;;18.27;;
7563;SDS011;3823;53.586;10.040;2024-03-02T08:01:17;28.90;;;17.35;;
7563;SDS011;3823;53.586;10.040;2024-03-02T08:03:43;27.58;;;18.23;;
7563;SDS011;3823;53.586;10.040;2024-03-02T08:06:16;27.35;;;17.30;;
7563;SDS011;3823;53.586;10.040;2024-03-02T08:08:42;33.08;;;19.55;;
7563;SDS011;3823;53.586;10.040;2024-03-02T08:11:08;34.92;;;19.40;;
7563;SDS011;3823;53.586;10.040;2024-03-02T08:13:33;33.47;;;19.15;;
7563;SDS011;3823;53.586;10.040;2024-03-02T08:15:59;29.17;;;19.88;;
7563;SDS011;3823;53.586;10.040;2024-03-02T08:18:24;30.45;;;18.65;;
7563;SDS011;3823;53.586;10.040;2024-03-02T08:20:50;32.72;;;18.65;;
7563;SDS011;3823;53.586;10.040;2024-03-02T08:23:15;32.15;;;20.38;;
7563;SDS011;3823;53.586;10.040;2024-03-02T08:25:42;37.75;;;19.50;;
7563;SDS011;3823;53.586;10.040;2024-03-02T08:28:07;36.05;;;21.30;;
7563;SDS011;3823;53.586;10.040;2024-03-02T08:30:33;37.72;;;20.75;;
7563;SDS011;3823;53.586;10.040;2024-03-02T08:32:59;34.28;;;20.15;;
7563;SDS011;3823;53.586;10.040;2024-03-02T08:35:25;33.20;;;20.35;;
7563;SDS011;3823;53.586;10.040;2024-03-02T08:37:50;34.40;;;21.58;;
7563;SDS011;3823;53.586;10.040;2024-03-02T08:40:26;34.75;;;21.90;;
7563;SDS011;3823;53.586;10.040;2024-03-02T08:42:52;33.78;;;19.05;;
7563;SDS011;3823;53.586;10.040;2024-03-02T08:45:17;28.23;;;18.05;;
7563;SDS011;3823;53.586;10.040;2024-03-02T08:47:45;29.63;;;19.52;;
7563;SDS011;3823;53.586;10.040;2024-03-02T08:50:11;33.85;;;19.70;;
7563;SDS011;3823;53.586;10.040;2024-03-02T08:52:37;30.23;;;19.02;;
7563;SDS011;3823;53.586;10.040;2024-03-02T08:55:02;34.67;;;18.85;;
7563;SDS011;3823;53.586;10.040;2024-03-02T08:57:28;32.95;;;19.65;;
7563;SDS011;3823;53.586;10.040;2024-03-02T08:59:53;40.92;;;20.98;;
7563;SDS011;3823;53.586;10.040;2024-03-02T09:02:19;37.05;;;21.73;;
7563;SDS011;3823;53.586;10.040;2024-03-02T09:04:45;35.38;;;18.80;;
7563;SDS011;3823;53.586;10.040;2024-03-02T09:07:10;29.63;;;18.98;;
7563;SDS011;3823;53.586;10.040;2024-03-02T09:09:36;30.25;;;18.25;;
7563;SDS011;3823;53.586;10.040;2024-03-02T09:12:03;33.10;;;19.88;;
7563;SDS011;3823;53.586;10.040;2024-03-02T09:14:29;32.20;;;20.65;;
7563;SDS011;3823;53.586;10.040;2024-03-02T09:16:55;31.15;;;19.98;;
7563;SDS011;3823;53.586;10.040;2024-03-02T09:19:21;32.05;;;19.05;;
7563;SDS011;3823;53.586;10.040;2024-03-02T09:21:46;31.35;;;19.13;;
7563;SDS011;3823;53.586;10.040;2024-03-02T09:24:12;32.33;;;17.85;;
7563;SDS011;3823;53.586;10.040;2024-03-02T09:26:37;35.63;;;19.45;;
7563;SDS011;3823;53.586;10.040;2024-03-02T09:29:03;29.58;;;18.95;;
7563;SDS011;3823;53.586;10.040;2024-03-02T09:31:29;35.00;;;20.00;;
7563;SDS011;3823;53.586;10.040;2024-03-02T09:33:54;31.10;;;18.27;;
7563;SDS011;3823;53.586;10.040;2024-03-02T09:36:21;27.48;;;17.70;;
7563;SDS011;3823;53.586;10.040;2024-03-02T09:38:47;27.17;;;17.63;;
7563;SDS011;3823;53.586;10.040;2024-03-02T09:41:14;25.70;;;17.00;;
7563;SDS011;3823;53.586;10.040;2024-03-02T09:43:40;33.45;;;18.75;;
7563;SDS011;3823;53.586;10.040;2024-03-02T09:46:07;27.83;;;17.17;;
7563;SDS011;3823;53.586;10.040;2024-03-02T09:48:34;26.55;;;16.88;;
7563;SDS011;3823;53.586;10.040;2024-03-02T09:51:00;27.95;;;17.48;;
7563;SDS011;3823;53.586;10.040;2024-03-02T09:53:29;25.88;;;16.13;;
7563;SDS011;3823;53.586;10.040;2024-03-02T09:55:58;26.98;;;16.80;;
7563;SDS011;3823;53.586;10.040;2024-03-02T09:58:24;24.60;;;17.85;;
7563;SDS011;3823;53.586;10.040;2024-03-02T10:00:50;22.73;;;15.15;;
7563;SDS011;3823;53.586;10.040;2024-03-02T10:03:16;22.60;;;16.35;;
7563;SDS011;3823;53.586;10.040;2024-03-02T10:05:44;26.45;;;15.75;;
7563;SDS011;3823;53.586;10.040;2024-03-02T10:08:09;25.08;;;15.68;;
7563;SDS011;3823;53.586;10.040;2024-03-02T10:10:39;27.95;;;18.20;;
7563;SDS011;3823;53.586;10.040;2024-03-02T10:13:08;26.55;;;15.93;;
7563;SDS011;3823;53.586;10.040;2024-03-02T10:15:38;21.83;;;14.77;;
7563;SDS011;3823;53.586;10.040;2024-03-02T10:18:10;24.38;;;14.02;;
7563;SDS011;3823;53.586;10.040;2024-03-02T10:20:37;22.75;;;15.15;;
7563;SDS011;3823;53.586;10.040;2024-03-02T10:23:13;25.00;;;15.65;;
7563;SDS011;3823;53.586;10.040;2024-03-02T10:25:40;24.00;;;15.38;;
7563;SDS011;3823;53.586;10.040;2024-03-02T10:28:06;22.85;;;14.30;;
7563;SDS011;3823;53.586;10.040;2024-03-02T10:30:32;21.08;;;13.73;;
7563;SDS011;3823;53.586;10.040;2024-03-02T10:33:01;20.30;;;13.48;;
7563;SDS011;3823;53.586;10.040;2024-03-02T10:35:27;21.98;;;13.80;;
7563;SDS011;3823;53.586;10.040;2024-03-02T10:37:53;22.77;;;13.80;;
7563;SDS011;3823;53.586;10.040;2024-03-02T10:40:22;17.75;;;12.70;;
7563;SDS011;3823;53.586;10.040;2024-03-02T10:42:49;22.08;;;13.38;;
7563;SDS011;3823;53.586;10.040;2024-03-02T10:45:16;16.98;;;13.07;;
7563;SDS011;3823;53.586;10.040;2024-03-02T10:47:44;17.20;;;11.77;;
7563;SDS011;3823;53.586;10.040;2024-03-02T10:50:11;21.73;;;13.10;;
7563;SDS011;3823;53.586;10.040;2024-03-02T10:52:37;18.55;;;13.35;;
7563;SDS011;3823;53.586;10.040;2024-03-02T10:55:07;20.15;;;12.65;;
7563;SDS011;3823;53.586;10.040;2024-03-02T10:57:41;19.20;;;11.38;;
7563;SDS011;3823;53.586;10.040;2024-03-02T11:00:11;22.33;;;13.38;;
7563;SDS011;3823;53.586;10.040;2024-03-02T11:02:41;15.48;;;11.23;;
7563;SDS011;3823;53.586;10.040;2024-03-02T11:05:27;18.83;;;11.90;;
7563;SDS011;3823;53.586;10.040;2024-03-02T11:08:06;16.55;;;11.07;;
7563;SDS011;3823;53.586;10.040;2024-03-02T11:10:34;12.73;;;9.90;;
7563;SDS011;3823;53.586;10.040;2024-03-02T11:13:02;15.18;;;10.70;;
7563;SDS011;3823;53.586;10.040;2024-03-02T11:15:31;15.32;;;8.85;;
7563;SDS011;3823;53.586;10.040;2024-03-02T11:17:59;14.23;;;9.63;;
7563;SDS011;3823;53.586;10.040;2024-03-02T11:20:25;14.77;;;9.27;;
7563;SDS011;3823;53.586;10.040;2024-03-02T11:22:51;10.48;;;8.05;;
7563;SDS011;3823;53.586;10.040;2024-03-02T11:25:27;12.90;;;8.77;;
7563;SDS011;3823;53.586;10.040;2024-03-02T11:32:59;11.48;;;7.30;;
7563;SDS011;3823;53.586;10.040;2024-03-02T11:35:28;9.57;;;7.13;;
7563;SDS011;3823;53.586;10.040;2024-03-02T11:37:54;13.40;;;7.15;;
7563;SDS011;3823;53.586;10.040;2024-03-02T11:40:24;11.68;;;8.02;;
7563;SDS011;3823;53.586;10.040;2024-03-02T11:42:50;9.27;;;7.18;;
7563;SDS011;3823;53.586;10.040;2024-03-02T11:45:16;10.38;;;7.25;;
7563;SDS011;3823;53.586;10.040;2024-03-02T11:47:46;12.32;;;7.45;;
7563;SDS011;3823;53.586;10.040;2024-03-02T11:50:40;12.98;;;7.45;;
7563;SDS011;3823;53.586;10.040;2024-03-02T11:53:07;10.40;;;7.15;;
7563;SDS011;3823;53.586;10.040;2024-03-02T11:55:37;11.18;;;7.90;;
7563;SDS011;3823;53.586;10.040;2024-03-02T11:58:04;12.15;;;7.70;;
7563;SDS011;3823;53.586;10.040;2024-03-02T12:00:30;8.68;;;7.07;;
7563;SDS011;3823;53.586;10.040;2024-03-02T12:03:00;13.75;;;7.53;;
7563;SDS011;3823;53.586;10.040;2024-03-02T12:05:27;9.82;;;6.35;;
7563;SDS011;3823;53.586;10.040;2024-03-02T12:07:56;8.95;;;6.35;;
7563;SDS011;3823;53.586;10.040;2024-03-02T12:10:27;10.07;;;7.20;;
7563;SDS011;3823;53.586;10.040;2024-03-02T12:12:56;9.57;;;7.07;;
7563;SDS011;3823;53.586;10.040;2024-03-02T12:15:27;11.55;;;7.45;;
7563;SDS011;3823;53.586;10.040;2024-03-02T12:17:57;8.90;;;6.88;;
7563;SDS011;3823;53.586;10.040;2024-03-02T12:20:24;10.48;;;7.07;;
7563;SDS011;3823;53.586;10.040;2024-03-02T12:22:52;12.85;;;7.65;;
7563;SDS011;3823;53.586;10.040;2024-03-02T12:25:19;9.77;;;7.72;;
7563;SDS011;3823;53.586;10.040;2024-03-02T12:27:46;11.55;;;8.40;;
7563;SDS011;3823;53.586;10.040;2024-03-02T12:30:14;10.48;;;7.40;;
7563;SDS011;3823;53.586;10.040;2024-03-02T12:32:46;9.75;;;7.38;;
7563;SDS011;3823;53.586;10.040;2024-03-02T12:35:13;8.90;;;7.22;;
7563;SDS011;3823;53.586;10.040;2024-03-02T12:37:45;11.77;;;8.15;;
7563;SDS011;3823;53.586;10.040;2024-03-02T12:40:12;12.50;;;8.02;;
7563;SDS011;3823;53.586;10.040;2024-03-02T12:42:39;10.93;;;8.05;;
7563;SDS011;3823;53.586;10.040;2024-03-02T12:45:06;14.95;;;7.85;;
7563;SDS011;3823;53.586;10.040;2024-03-02T12:47:36;12.43;;;6.88;;
7563;SDS011;3823;53.586;10.040;2024-03-02T12:50:04;11.45;;;7.65;;
7563;SDS011;3823;53.586;10.040;2024-03-02T12:52:30;13.43;;;9.02;;
7563;SDS011;3823;53.586;10.040;2024-03-02T12:54:57;13.18;;;7.10;;
7563;SDS011;3823;53.586;10.040;2024-03-02T12:57:28;13.70;;;7.70;;
7563;SDS011;3823;53.586;10.040;2024-03-02T13:00:00;17.35;;;8.18;;
7563;SDS011;3823;53.586;10.040;2024-03-02T13:02:34;22.80;;;7.53;;
7563;SDS011;3823;53.586;10.040;2024-03-02T13:05:07;12.13;;;8.30;;
7563;SDS011;3823;53.586;10.040;2024-03-02T13:07:36;18.75;;;9.18;;
7563;SDS011;3823;53.586;10.040;2024-03-02T13:10:02;13.50;;;9.15;;
7563;SDS011;3823;53.586;10.040;2024-03-02T13:12:28;11.23;;;9.02;;
7563;SDS011;3823;53.586;10.040;2024-03-02T13:14:57;13.98;;;8.73;;
7563;SDS011;3823;53.586;10.040;2024-03-02T13:17:27;11.75;;;8.27;;
7563;SDS011;3823;53.586;10.040;2024-03-02T13:19:57;12.55;;;8.23;;
7563;SDS011;3823;53.586;10.040;2024-03-02T13:22:23;12.80;;;8.95;;
7563;SDS011;3823;53.586;10.040;2024-03-02T13:24:52;12.43;;;9.10;;
7563;SDS011;3823;53.586;10.040;2024-03-02T13:27:19;12.20;;;9.13;;
7563;SDS011;3823;53.586;10.040;2024-03-02T13:29:45;12.88;;;8.25;;
7563;SDS011;3823;53.586;10.040;2024-03-02T13:32:12;10.85;;;8.45;;
7563;SDS011;3823;53.586;10.040;2024-03-02T13:34:39;13.15;;;8.73;;
7563;SDS011;3823;53.586;10.040;2024-03-02T13:37:04;13.27;;;9.40;;
7563;SDS011;3823;53.586;10.040;2024-03-02T13:39:30;13.05;;;9.30;;
7563;SDS011;3823;53.586;10.040;2024-03-02T13:41:59;11.68;;;9.15;;
7563;SDS011;3823;53.586;10.040;2024-03-02T13:44:31;14.65;;;10.25;;
7563;SDS011;3823;53.586;10.040;2024-03-02T13:46:56;14.95;;;9.63;;
7563;SDS011;3823;53.586;10.040;2024-03-02T13:49:23;13.65;;;9.52;;
7563;SDS011;3823;53.586;10.040;2024-03-02T13:51:49;15.75;;;10.45;;
7563;SDS011;3823;53.586;10.040;2024-03-02T13:54:15;13.27;;;9.07;;
7563;SDS011;3823;53.586;10.040;2024-03-02T13:56:40;15.00;;;9.95;;
7563;SDS011;3823;53.586;10.040;2024-03-02T13:59:06;14.40;;;8.80;;
7563;SDS011;3823;53.586;10.040;2024-03-02T14:01:33;12.13;;;10.07;;
7563;SDS011;3823;53.586;10.040;2024-03-02T14:03:59;14.70;;;9.70;;
7563;SDS011;3823;53.586;10.040;2024-03-02T14:06:24;13.70;;;10.40;;
7563;SDS011;3823;53.586;10.040;2024-03-02T14:08:52;17.23;;;10.30;;
7563;SDS011;3823;53.586;10.040;2024-03-02T14:11:17;10.32;;;8.73;;
7563;SDS011;3823;53.586;10.040;2024-03-02T14:13:44;14.88;;;10.77;;
7563;SDS011;3823;53.586;10.040;2024-03-02T14:16:14;15.23;;;9.40;;
7563;SDS011;3823;53.586;10.040;2024-03-02T14:18:40;13.23;;;8.98;;
7563;SDS011;3823;53.586;10.040;2024-03-02T14:21:07;14.57;;;10.93;;
7563;SDS011;3823;53.586;10.040;2024-03-02T14:23:33;20.98;;;12.95;;
7563;SDS011;3823;53.586;10.040;2024-03-02T14:25:58;15.18;;;9.88;;
7563;SDS011;3823;53.586;10.040;2024-03-02T14:28:24;12.35;;;9.25;;
7563;SDS011;3823;53.586;10.040;2024-03-02T14:30:50;17.45;;;10.38;;
7563;SDS011;3823;53.586;10.040;2024-03-02T14:33:15;14.77;;;10.10;;
7563;SDS011;3823;53.586;10.040;2024-03-02T14:35:42;15.90;;;9.75;;
7563;SDS011;3823;53.586;10.040;2024-03-02T14:38:07;15.45;;;10.38;;
7563;SDS011;3823;53.586;10.040;2024-03-02T14:40:33;14.35;;;9.38;;
7563;SDS011;3823;53.586;10.040;2024-03-02T14:42:58;11.10;;;8.80;;